This is the latest recevied weather packets stored in our database for station/object F1ZRP-13. If no packets are shown the sender has not sent any weather packets the latest 10 day(s).
| Time | Temp. | Humidity | Pressure | Rain* | Wind** | Luminosity | Snow |
|---|---|---|---|---|---|---|---|
| 1777482173 | 26.67° C | 22% | 1021.7 hPa | - | - | - | - |
| 1777481478 | 28.33° C | 21% | 1021.6 hPa | - | - | - | - |
| 1777480673 | 31.11° C | 19% | 1021.6 hPa | - | - | - | - |
| 1777479642 | 30° C | 21% | 1021.7 hPa | - | - | - | - |
| 1777478747 | 31.11° C | 20% | 1021.5 hPa | - | - | - | - |
| 1777477839 | 30.56° C | 20% | 1021.4 hPa | - | - | - | - |
| 1777476820 | 30.56° C | 22% | 1021.4 hPa | - | - | - | - |
| 1777475769 | 31.67° C | 21% | 1021.5 hPa | - | - | - | - |
| 1777474948 | 30° C | 25% | 1021.5 hPa | - | - | - | - |
| 1777473965 | 25.56° C | 28% | 1021.4 hPa | - | - | - | - |
| 1777472772 | 25° C | 28% | 1021.5 hPa | - | - | - | - |
| 1777471622 | 23.33° C | 29% | 1021.5 hPa | - | - | - | - |
| 1777470573 | 21.11° C | 34% | 1021.5 hPa | - | - | - | - |
| 1777469528 | 20° C | 35% | 1021.5 hPa | - | - | - | - |
| 1777468724 | 20° C | 36% | 1021.7 hPa | - | - | - | - |
| 1777467752 | 20.56° C | 36% | 1021.7 hPa | - | - | - | - |
| 1777466708 | 21.11° C | 35% | 1021.7 hPa | - | - | - | - |
| 1777465712 | 21.67° C | 36% | 1021.8 hPa | - | - | - | - |
| 1777464974 | 21.11° C | 35% | 1021.9 hPa | - | - | - | - |
| 1777464148 | 20.56° C | 36% | 1022 hPa | - | - | - | - |
| 1777463364 | 19.44° C | 37% | 1022 hPa | - | - | - | - |
| 1777462476 | 18.89° C | 39% | 1022 hPa | - | - | - | - |
| 1777461461 | 18.33° C | 40% | 1022.1 hPa | - | - | - | - |
| 1777460634 | 17.78° C | 40% | 1022 hPa | - | - | - | - |
| 1777459678 | 17.22° C | 41% | 1021.9 hPa | - | - | - | - |
* Rain since midnight (hover to see other rain measurements)
** Current wind speed in m/s (hover to see current wind gust speed)